createdAt,value
2018-03-21T00:01:40.400Z,1.20
2018-03-21T00:04:08.038Z,1.20
2018-03-21T00:06:35.545Z,1.10
2018-03-21T00:09:03.037Z,1.00
2018-03-21T00:11:30.545Z,1.00
2018-03-21T00:13:58.501Z,1.00
2018-03-21T00:16:26.021Z,1.00
2018-03-21T00:18:53.597Z,1.00
2018-03-21T00:21:21.188Z,1.00
2018-03-21T00:23:48.961Z,1.00
2018-03-21T00:26:16.474Z,1.00
2018-03-21T00:28:44.735Z,0.90
2018-03-21T00:31:12.244Z,0.90
2018-03-21T00:33:41.527Z,0.90
2018-03-21T00:36:09.428Z,0.90
2018-03-21T00:38:37.688Z,0.90
2018-03-21T00:41:05.191Z,0.90
2018-03-21T00:43:32.856Z,0.90
2018-03-21T00:46:00.859Z,0.90
2018-03-21T00:48:28.361Z,0.80
2018-03-21T00:50:55.870Z,0.80
2018-03-21T00:53:24.100Z,0.80
2018-03-21T00:55:52.371Z,0.80
2018-03-21T00:58:19.867Z,0.80
2018-03-21T01:00:47.521Z,0.80
2018-03-21T01:03:15.031Z,0.70
2018-03-21T01:05:42.915Z,0.70
2018-03-21T01:08:12.311Z,0.70
2018-03-21T01:10:39.803Z,0.70
2018-03-21T01:13:07.588Z,0.70
2018-03-21T01:15:35.472Z,0.70
2018-03-21T01:18:04.053Z,0.70
2018-03-21T01:20:31.544Z,0.70
2018-03-21T01:22:59.250Z,0.70
2018-03-21T01:25:27.632Z,0.70
2018-03-21T01:27:55.707Z,0.70
2018-03-21T01:30:23.726Z,0.70
2018-03-21T01:32:51.630Z,0.70
2018-03-21T01:35:20.270Z,0.70
2018-03-21T01:37:49.920Z,0.60
2018-03-21T01:40:17.632Z,0.60
2018-03-21T01:42:45.409Z,0.60
2018-03-21T01:45:13.119Z,0.50
2018-03-21T01:47:40.626Z,0.60
2018-03-21T01:50:08.132Z,0.70
2018-03-21T01:52:36.721Z,0.70
2018-03-21T01:55:04.616Z,0.70
2018-03-21T01:57:32.127Z,0.80
2018-03-21T02:00:00.236Z,0.80
2018-03-21T02:02:27.771Z,0.80
2018-03-21T02:04:56.152Z,0.80
2018-03-21T02:07:23.918Z,0.80
2018-03-21T02:09:52.782Z,0.80
2018-03-21T02:12:20.276Z,0.80
2018-03-21T02:14:48.168Z,0.70
2018-03-21T02:17:15.680Z,0.80
2018-03-21T02:19:43.361Z,0.70
2018-03-21T02:22:10.859Z,0.70
2018-03-21T02:24:38.554Z,0.70
2018-03-21T02:27:06.332Z,0.70
2018-03-21T02:29:34.391Z,0.70
2018-03-21T02:32:02.199Z,0.70
2018-03-21T02:34:31.205Z,0.70
2018-03-21T02:36:58.915Z,0.70
2018-03-21T02:39:26.411Z,0.60
2018-03-21T02:41:54.139Z,0.60
2018-03-21T02:44:21.904Z,0.50
2018-03-21T02:46:49.403Z,0.50
2018-03-21T02:49:16.900Z,0.50
2018-03-21T02:51:45.533Z,0.60
2018-03-21T02:54:14.803Z,0.50
2018-03-21T02:56:42.294Z,0.50
2018-03-21T02:59:10.569Z,0.50
2018-03-21T03:01:38.057Z,0.50
2018-03-21T03:04:05.556Z,0.50
2018-03-21T03:06:33.044Z,0.50
2018-03-21T03:09:00.555Z,0.60
2018-03-21T03:11:28.525Z,0.60
2018-03-21T03:13:56.176Z,0.50
2018-03-21T03:16:23.658Z,0.40
2018-03-21T03:18:51.156Z,0.50
2018-03-21T03:21:18.980Z,0.50
2018-03-21T03:23:46.763Z,0.50
2018-03-21T03:26:16.039Z,0.40
2018-03-21T03:28:43.548Z,0.40
2018-03-21T03:31:11.235Z,0.60
2018-03-21T03:33:38.760Z,0.50
2018-03-21T03:36:07.040Z,0.50
2018-03-21T03:38:34.571Z,0.50
2018-03-21T03:41:02.082Z,0.40
2018-03-21T03:43:30.999Z,0.40
2018-03-21T03:45:58.811Z,0.40
2018-03-21T03:48:26.527Z,0.40
2018-03-21T03:50:54.320Z,0.30
2018-03-21T03:53:22.624Z,0.30
2018-03-21T03:55:50.254Z,0.30
2018-03-21T03:58:18.552Z,0.30
2018-03-21T04:00:46.264Z,0.30
2018-03-21T04:03:14.334Z,0.30
2018-03-21T04:05:42.377Z,0.20
2018-03-21T04:08:09.873Z,0.20
2018-03-21T04:10:37.375Z,0.20
2018-03-21T04:13:05.713Z,0.20
2018-03-21T04:15:33.724Z,0.20
2018-03-21T04:18:02.763Z,0.30
2018-03-21T04:20:30.267Z,0.20
2018-03-21T04:22:58.893Z,0.20
2018-03-21T04:25:26.391Z,0.30
2018-03-21T04:27:54.744Z,0.30
2018-03-21T04:30:22.237Z,0.30
2018-03-21T04:32:49.960Z,0.30
2018-03-21T04:35:17.459Z,0.30
2018-03-21T04:37:45.732Z,0.30
2018-03-21T04:40:13.243Z,0.20
2018-03-21T04:42:40.747Z,0.30
2018-03-21T04:45:08.432Z,0.20
2018-03-21T04:47:35.928Z,0.20
2018-03-21T04:50:03.432Z,0.30
2018-03-21T04:52:30.932Z,0.20
2018-03-21T04:54:58.684Z,0.20
2018-03-21T04:57:26.209Z,0.20
2018-03-21T04:59:54.488Z,0.20
2018-03-21T05:02:21.997Z,0.20
2018-03-21T05:04:49.612Z,0.10
2018-03-21T05:07:17.511Z,0.10
2018-03-21T05:09:45.184Z,0.20
2018-03-21T05:12:13.587Z,0.10
2018-03-21T05:14:41.085Z,0.10
2018-03-21T05:17:08.740Z,0.10
2018-03-21T05:19:36.664Z,0.00
2018-03-21T05:22:04.271Z,0.00
2018-03-21T05:24:31.780Z,0.00
2018-03-21T05:26:59.755Z,0.30
2018-03-21T05:29:28.034Z,0.40
2018-03-21T05:31:55.540Z,0.30
2018-03-21T05:34:23.045Z,0.30
2018-03-21T05:36:51.068Z,0.30
2018-03-21T05:39:18.995Z,0.00
2018-03-21T05:41:46.683Z,-0.10
2018-03-21T05:44:14.203Z,0.00
2018-03-21T05:46:41.715Z,-0.10
2018-03-21T05:49:09.904Z,0.00
2018-03-21T05:51:37.791Z,0.00
2018-03-21T05:54:07.588Z,0.30
2018-03-21T05:56:35.844Z,0.70
2018-03-21T05:59:03.348Z,1.30
2018-03-21T06:01:31.472Z,1.40
2018-03-21T06:03:59.071Z,1.60
2018-03-21T06:06:27.143Z,2.10
2018-03-21T06:08:56.227Z,1.80
2018-03-21T06:11:23.728Z,1.90
2018-03-21T06:13:51.655Z,2.10
2018-03-21T06:16:19.716Z,2.50
2018-03-21T06:18:47.613Z,2.40
2018-03-21T06:21:15.123Z,2.60
2018-03-21T06:23:42.619Z,2.20
2018-03-21T06:26:10.125Z,1.30
2018-03-21T06:28:37.626Z,0.90
2018-03-21T06:31:06.115Z,0.70
2018-03-21T06:33:34.381Z,0.60
2018-03-21T06:36:02.146Z,0.60
2018-03-21T06:38:29.889Z,0.60
2018-03-21T06:40:57.939Z,0.60
2018-03-21T06:43:25.732Z,0.60
2018-03-21T06:45:53.240Z,0.50
2018-03-21T06:48:21.515Z,0.40
2018-03-21T06:50:49.223Z,0.40
2018-03-21T06:53:17.731Z,0.50
2018-03-21T06:55:45.227Z,0.50
2018-03-21T06:58:13.235Z,0.60
2018-03-21T07:00:41.472Z,0.70
2018-03-21T07:03:08.975Z,0.60
2018-03-21T07:05:37.272Z,0.60
2018-03-21T07:08:05.565Z,0.70
2018-03-21T07:10:33.678Z,0.70
2018-03-21T07:13:01.570Z,0.70
2018-03-21T07:15:41.396Z,0.80
2018-03-21T07:18:08.892Z,0.70
2018-03-21T07:20:36.799Z,0.60
2018-03-21T07:23:04.301Z,0.60
2018-03-21T07:25:33.657Z,0.60
2018-03-21T07:28:01.154Z,0.60
2018-03-21T07:30:28.912Z,0.60
2018-03-21T07:32:56.411Z,0.80
2018-03-21T07:35:24.429Z,0.80
2018-03-21T07:37:52.328Z,1.00
2018-03-21T07:40:20.228Z,1.00
2018-03-21T07:42:47.723Z,1.10
2018-03-21T07:45:15.448Z,1.10
2018-03-21T07:47:42.956Z,1.10
2018-03-21T07:50:11.959Z,1.20
2018-03-21T07:52:39.618Z,1.30
2018-03-21T07:55:07.124Z,1.30
2018-03-21T07:57:34.665Z,1.40
2018-03-21T08:00:02.344Z,1.60
2018-03-21T08:02:30.110Z,1.60
2018-03-21T08:04:57.911Z,1.80
2018-03-21T08:07:25.664Z,1.90
2018-03-21T08:09:53.163Z,1.80
2018-03-21T08:12:20.679Z,2.00
2018-03-21T08:14:48.170Z,2.00
2018-03-21T08:17:15.685Z,2.20
2018-03-21T08:19:43.179Z,2.20
2018-03-21T08:22:11.440Z,2.40
2018-03-21T08:24:39.066Z,2.60
2018-03-21T08:27:06.555Z,2.70
2018-03-21T08:29:34.082Z,2.80
2018-03-21T08:32:02.997Z,3.00
2018-03-21T08:34:30.542Z,3.10
2018-03-21T08:36:58.224Z,3.10
2018-03-21T08:39:25.857Z,3.20
2018-03-21T08:41:53.391Z,3.30
2018-03-21T08:44:21.187Z,3.30
2018-03-21T08:46:49.079Z,3.50
2018-03-21T08:49:17.414Z,3.50
2018-03-21T08:51:45.677Z,3.60
2018-03-21T08:54:13.491Z,3.60
2018-03-21T08:56:41.255Z,3.60
2018-03-21T08:59:09.168Z,3.60
2018-03-21T09:01:37.419Z,3.60
2018-03-21T09:04:05.323Z,3.70
2018-03-21T09:06:33.218Z,3.80
2018-03-21T09:09:01.123Z,3.90
2018-03-21T09:11:29.891Z,4.10
2018-03-21T09:13:58.041Z,4.10
2018-03-21T09:16:25.533Z,4.10
2018-03-21T09:18:53.548Z,4.20
2018-03-21T09:21:21.055Z,4.20
2018-03-21T09:23:49.102Z,4.20
2018-03-21T09:26:16.872Z,4.30
2018-03-21T09:28:44.355Z,4.20
2018-03-21T09:31:12.063Z,4.30
2018-03-21T09:33:39.575Z,4.20
2018-03-21T09:36:07.292Z,4.20
2018-03-21T09:38:35.003Z,4.20
2018-03-21T09:41:03.440Z,4.40
2018-03-21T09:43:31.213Z,4.30
2018-03-21T09:45:59.138Z,4.50
2018-03-21T09:48:26.738Z,4.60
2018-03-21T09:50:54.767Z,4.60
2018-03-21T09:53:22.276Z,4.70
2018-03-21T09:55:51.295Z,4.70
2018-03-21T09:58:18.807Z,4.60
2018-03-21T10:00:46.753Z,4.50
2018-03-21T10:03:14.256Z,4.50
2018-03-21T10:05:42.197Z,4.50
2018-03-21T10:08:09.700Z,4.60
2018-03-21T10:10:38.148Z,4.60
2018-03-21T10:13:06.508Z,4.50
2018-03-21T10:15:35.478Z,4.70
2018-03-21T10:18:02.976Z,4.70
2018-03-21T10:20:31.387Z,4.70
2018-03-21T10:22:59.068Z,4.80
2018-03-21T10:25:26.568Z,4.80
2018-03-21T10:27:54.056Z,5.00
2018-03-21T10:30:22.507Z,5.10
2018-03-21T10:32:50.452Z,5.30
2018-03-21T10:35:18.555Z,5.20
2018-03-21T10:37:46.316Z,5.20
2018-03-21T10:40:13.833Z,5.00
2018-03-21T10:42:41.360Z,4.90
2018-03-21T10:45:09.560Z,5.00
2018-03-21T10:47:37.690Z,4.80
2018-03-21T10:50:05.184Z,4.80
2018-03-21T10:52:38.912Z,4.90
2018-03-21T10:55:00.698Z,5.10
2018-03-21T10:57:28.969Z,5.10
2018-03-21T10:59:56.813Z,5.00
2018-03-21T11:02:24.352Z,5.30
2018-03-21T11:04:51.943Z,5.30
2018-03-21T11:07:19.480Z,5.00
2018-03-21T11:09:47.239Z,4.90
2018-03-21T11:12:15.235Z,4.80
2018-03-21T11:14:43.590Z,4.80
2018-03-21T11:17:11.097Z,4.90
2018-03-21T11:19:38.595Z,4.90
2018-03-21T11:22:06.096Z,4.80
2018-03-21T11:24:34.141Z,4.80
2018-03-21T11:27:01.892Z,4.70
2018-03-21T11:29:29.383Z,4.70
2018-03-21T11:31:57.719Z,4.70
2018-03-21T11:34:25.435Z,4.80
2018-03-21T11:36:52.936Z,4.80
2018-03-21T11:39:21.520Z,4.60
2018-03-21T11:41:49.008Z,4.60
2018-03-21T11:44:16.514Z,4.50
2018-03-21T11:46:45.223Z,4.70
2018-03-21T11:49:12.736Z,4.90
2018-03-21T11:51:41.452Z,4.80
2018-03-21T11:54:09.440Z,4.60
2018-03-21T11:56:37.171Z,4.50
2018-03-21T11:59:04.876Z,4.50
2018-03-21T12:01:32.469Z,4.50
2018-03-21T12:04:00.099Z,4.60
2018-03-21T12:06:28.588Z,4.50
2018-03-21T12:08:56.323Z,4.50
2018-03-21T12:11:24.084Z,4.70
2018-03-21T12:13:51.956Z,4.70
2018-03-21T12:16:19.466Z,4.80
2018-03-21T12:18:47.731Z,4.80
2018-03-21T12:21:15.242Z,4.70
2018-03-21T12:23:42.871Z,4.80
2018-03-21T12:26:11.006Z,4.70
2018-03-21T12:28:38.713Z,4.70
2018-03-21T12:31:06.427Z,4.70
2018-03-21T12:33:33.959Z,4.60
2018-03-21T12:36:01.728Z,4.50
2018-03-21T12:38:29.487Z,4.60
2018-03-21T12:40:57.256Z,4.60
2018-03-21T12:43:24.752Z,4.60
2018-03-21T12:45:53.076Z,4.70
2018-03-21T12:48:20.618Z,4.80
2018-03-21T12:50:48.576Z,4.80
2018-03-21T12:53:16.068Z,4.80
2018-03-21T12:55:43.875Z,4.90
2018-03-21T12:58:11.596Z,4.90
2018-03-21T13:00:39.363Z,5.00
2018-03-21T13:03:07.119Z,5.10
2018-03-21T13:05:34.658Z,5.30
2018-03-21T13:08:02.310Z,5.40
2018-03-21T13:10:29.814Z,5.50
2018-03-21T13:12:57.436Z,5.30
2018-03-21T13:15:24.930Z,5.30
2018-03-21T13:17:52.822Z,5.30
2018-03-21T13:20:20.463Z,5.30
2018-03-21T13:22:47.961Z,5.30
2018-03-21T13:25:15.768Z,5.20
2018-03-21T13:27:43.277Z,5.20
2018-03-21T13:30:10.983Z,5.20
2018-03-21T13:32:38.758Z,5.10
2018-03-21T13:35:06.511Z,5.20
2018-03-21T13:37:34.275Z,5.10
2018-03-21T13:40:01.784Z,5.00
2018-03-21T13:42:29.427Z,4.90
2018-03-21T13:44:57.446Z,4.80
2018-03-21T13:47:26.002Z,4.90
2018-03-21T13:49:54.204Z,4.90
2018-03-21T13:52:21.717Z,4.80
2018-03-21T13:54:50.072Z,4.90
2018-03-21T13:57:17.563Z,4.90
2018-03-21T13:59:45.068Z,4.90
2018-03-21T14:02:12.564Z,4.90
2018-03-21T14:04:40.067Z,4.80
2018-03-21T14:07:08.780Z,4.70
2018-03-21T14:09:36.271Z,4.70
2018-03-21T14:12:04.531Z,4.80
2018-03-21T14:14:32.160Z,4.90
2018-03-21T14:16:59.740Z,4.90
2018-03-21T14:19:27.235Z,4.90
2018-03-21T14:21:55.130Z,4.80
2018-03-21T14:24:22.630Z,4.80
2018-03-21T14:26:51.022Z,4.70
2018-03-21T14:29:19.178Z,4.80
2018-03-21T14:31:46.660Z,4.80
2018-03-21T14:34:14.291Z,4.90
2018-03-21T14:36:41.838Z,4.80
2018-03-21T14:39:09.339Z,4.80
2018-03-21T14:41:37.059Z,5.00
2018-03-21T14:44:05.000Z,5.00
2018-03-21T14:46:32.648Z,5.10
2018-03-21T14:49:00.143Z,5.20
2018-03-21T14:51:27.805Z,5.20
2018-03-21T14:53:55.572Z,5.20
2018-03-21T14:56:23.076Z,5.30
2018-03-21T14:58:50.747Z,5.30
2018-03-21T15:01:18.649Z,5.20
2018-03-21T15:03:46.381Z,5.10
2018-03-21T15:06:14.080Z,5.30
2018-03-21T15:08:41.995Z,5.40
2018-03-21T15:11:10.519Z,5.30
2018-03-21T15:13:38.435Z,5.40
2018-03-21T15:16:06.711Z,5.50
2018-03-21T15:18:34.444Z,5.60
2018-03-21T15:21:01.965Z,5.60
2018-03-21T15:23:29.655Z,5.70
2018-03-21T15:25:57.964Z,5.70
2018-03-21T15:28:25.517Z,5.70
2018-03-21T15:30:52.976Z,5.80
2018-03-21T15:33:21.198Z,5.60
2018-03-21T15:35:48.679Z,5.60
2018-03-21T15:38:16.206Z,5.70
2018-03-21T15:40:43.712Z,5.80
2018-03-21T15:43:12.023Z,5.70
2018-03-21T15:45:39.525Z,5.80
2018-03-21T15:48:07.805Z,5.70
2018-03-21T15:50:35.685Z,5.70
2018-03-21T15:53:04.685Z,5.60
2018-03-21T15:55:33.070Z,5.60
2018-03-21T15:58:00.531Z,5.60
2018-03-21T16:00:28.037Z,5.50
2018-03-21T16:02:55.533Z,5.50
2018-03-21T16:22:41.550Z,5.40
2018-03-21T16:25:09.275Z,5.30
2018-03-21T16:27:36.772Z,5.20
2018-03-21T16:30:04.404Z,5.20
2018-03-21T16:32:31.911Z,5.20
2018-03-21T16:34:59.968Z,5.20
2018-03-21T16:37:27.494Z,5.20
2018-03-21T16:39:56.160Z,5.30
2018-03-21T16:42:23.655Z,5.20
2018-03-21T16:44:51.355Z,5.20
2018-03-21T16:47:19.159Z,5.20
2018-03-21T16:49:46.656Z,5.30
2018-03-21T16:52:14.971Z,5.30
2018-03-21T16:54:42.487Z,5.10
2018-03-21T16:57:10.811Z,5.10
2018-03-21T16:59:38.318Z,5.20
2018-03-21T17:02:06.166Z,5.30
2018-03-21T17:04:33.812Z,5.20
2018-03-21T17:07:01.560Z,5.10
2018-03-21T17:09:29.057Z,5.10
2018-03-21T17:11:56.562Z,5.10
2018-03-21T17:14:24.232Z,5.20
2018-03-21T17:16:51.738Z,5.10
2018-03-21T17:19:19.428Z,5.00
2018-03-21T17:21:47.214Z,5.00
2018-03-21T17:24:15.125Z,5.00
2018-03-21T17:26:43.412Z,4.90
2018-03-21T17:29:10.909Z,4.80
2018-03-21T17:31:39.472Z,4.90
2018-03-21T17:34:07.798Z,4.90
2018-03-21T17:36:36.252Z,4.90
2018-03-21T17:39:03.775Z,4.90
2018-03-21T17:41:31.284Z,4.90
2018-03-21T17:43:58.777Z,5.00
2018-03-21T17:46:27.419Z,5.00
2018-03-21T17:48:55.402Z,5.00
2018-03-21T17:51:23.077Z,5.00
2018-03-21T17:53:51.520Z,4.90
2018-03-21T17:56:19.034Z,5.00
2018-03-21T17:58:47.053Z,4.90
2018-03-21T18:01:14.812Z,4.90
2018-03-21T18:03:42.607Z,4.90
2018-03-21T18:06:10.985Z,4.70
2018-03-21T18:08:38.720Z,4.60
2018-03-21T18:11:06.219Z,4.70
2018-03-21T18:13:33.915Z,4.60
2018-03-21T18:16:01.443Z,4.60
2018-03-21T18:18:28.958Z,4.70
2018-03-21T18:20:56.617Z,4.60
2018-03-21T18:23:24.662Z,4.50
2018-03-21T18:25:52.151Z,4.50
2018-03-21T18:28:19.662Z,4.60
2018-03-21T18:30:47.359Z,4.50
2018-03-21T18:33:15.124Z,4.60
2018-03-21T18:35:42.889Z,4.60
2018-03-21T18:38:10.656Z,4.50
2018-03-21T18:40:38.432Z,4.40
2018-03-21T18:43:05.950Z,4.40
2018-03-21T18:45:33.636Z,4.30
2018-03-21T18:48:01.147Z,4.30
2018-03-21T18:50:29.136Z,4.30
2018-03-21T18:52:56.632Z,4.20
2018-03-21T18:55:24.134Z,4.20
2018-03-21T18:57:51.662Z,4.30
2018-03-21T19:00:19.734Z,4.30
2018-03-21T19:02:47.232Z,4.30
2018-03-21T19:05:14.806Z,4.30
2018-03-21T19:07:42.376Z,4.40
2018-03-21T19:10:10.664Z,4.30
2018-03-21T19:12:38.616Z,4.10
2018-03-21T19:15:06.468Z,4.20
2018-03-21T19:17:33.967Z,4.20
2018-03-21T19:20:01.756Z,4.20
2018-03-21T19:22:29.479Z,4.30
2018-03-21T19:24:57.250Z,4.10
2018-03-21T19:27:24.750Z,4.20
2018-03-21T19:29:52.464Z,4.20
2018-03-21T19:32:21.007Z,4.30
2018-03-21T19:34:48.516Z,4.30
2018-03-21T19:37:16.067Z,4.20
2018-03-21T19:39:43.606Z,4.20
2018-03-21T19:42:11.789Z,4.20
2018-03-21T19:44:39.284Z,4.10
2018-03-21T19:47:06.806Z,4.10
2018-03-21T19:49:34.596Z,4.10
2018-03-21T19:52:02.320Z,4.10
2018-03-21T19:54:30.111Z,4.10
2018-03-21T19:56:57.605Z,4.00
2018-03-21T19:59:25.318Z,4.10
2018-03-21T20:01:53.427Z,4.00
2018-03-21T20:04:21.699Z,4.10
2018-03-21T20:06:49.216Z,4.10
2018-03-21T20:09:16.996Z,4.10
2018-03-21T20:11:44.750Z,4.20
2018-03-21T20:14:12.269Z,4.20
2018-03-21T20:16:39.784Z,4.20
2018-03-21T20:19:07.318Z,4.10
2018-03-21T20:21:35.583Z,4.10
2018-03-21T20:24:03.110Z,4.00
2018-03-21T20:26:31.382Z,4.00
2018-03-21T20:28:58.888Z,4.10
2018-03-21T20:31:26.547Z,4.10
2018-03-21T20:33:54.065Z,4.10
2018-03-21T20:36:22.362Z,4.10
2018-03-21T20:38:49.860Z,3.90
2018-03-21T20:41:17.379Z,3.90
2018-03-21T20:43:44.879Z,3.90
2018-03-21T20:46:12.391Z,3.90
2018-03-21T20:48:41.132Z,4.00
2018-03-21T20:51:08.714Z,4.00
2018-03-21T20:53:36.165Z,4.00
2018-03-21T20:56:03.880Z,3.90
2018-03-21T20:58:31.388Z,3.90
2018-03-21T21:00:58.912Z,3.90
2018-03-21T21:03:26.551Z,3.90
2018-03-21T21:05:55.320Z,3.90
2018-03-21T21:08:22.829Z,3.90
2018-03-21T21:10:50.340Z,3.80
2018-03-21T21:13:17.943Z,3.80
2018-03-21T21:15:45.477Z,3.70
2018-03-21T21:18:13.372Z,3.70
2018-03-21T21:20:40.867Z,3.70
2018-03-21T21:23:08.443Z,3.80
2018-03-21T21:25:36.117Z,3.90
2018-03-21T21:28:03.620Z,3.80
2018-03-21T21:30:31.151Z,3.70
2018-03-21T21:32:58.773Z,3.60
2018-03-21T21:35:26.445Z,3.70
2018-03-21T21:37:54.948Z,3.70
2018-03-21T21:40:23.008Z,3.70
2018-03-21T21:42:50.512Z,3.70
2018-03-21T21:45:18.823Z,3.70
2018-03-21T21:47:46.606Z,3.70
2018-03-21T21:50:14.881Z,3.60
2018-03-21T21:52:42.419Z,3.70
2018-03-21T21:55:10.203Z,3.70
2018-03-21T21:57:37.703Z,3.70
2018-03-21T22:00:05.206Z,3.50
2018-03-21T22:02:33.367Z,3.60
2018-03-21T22:05:01.328Z,3.70
2018-03-21T22:07:29.628Z,3.70
2018-03-21T22:09:57.695Z,3.70
2018-03-21T22:12:25.224Z,3.70
2018-03-21T22:14:52.927Z,3.70
2018-03-21T22:17:20.427Z,3.60
2018-03-21T22:19:47.923Z,3.70
2018-03-21T22:22:16.884Z,3.70
2018-03-21T22:24:44.395Z,3.60
2018-03-21T22:27:11.891Z,3.60
2018-03-21T22:29:40.919Z,3.40
2018-03-21T22:32:10.039Z,3.50
2018-03-21T22:34:37.776Z,3.50
2018-03-21T22:37:06.088Z,3.60
2018-03-21T22:39:34.248Z,3.60
2018-03-21T22:42:02.627Z,3.50
2018-03-21T22:44:30.132Z,3.60
2018-03-21T22:46:58.040Z,3.70
2018-03-21T22:49:25.560Z,3.60
2018-03-21T22:51:53.078Z,3.50
2018-03-21T22:54:20.878Z,3.50
2018-03-21T22:56:48.595Z,3.60
2018-03-21T22:59:16.497Z,3.60
2018-03-21T23:01:43.992Z,3.70
2018-03-21T23:04:11.577Z,3.60
2018-03-21T23:06:39.843Z,3.50
2018-03-21T23:09:07.840Z,3.60
2018-03-21T23:11:36.124Z,3.50
2018-03-21T23:14:04.167Z,3.70
2018-03-21T23:16:32.236Z,3.70
2018-03-21T23:18:59.735Z,3.70
2018-03-21T23:21:27.464Z,3.70
2018-03-21T23:23:55.362Z,3.80
2018-03-21T23:26:23.759Z,3.80
2018-03-21T23:28:52.652Z,3.70
2018-03-21T23:31:20.975Z,3.70
2018-03-21T23:33:48.739Z,3.70
2018-03-21T23:36:17.152Z,3.60
2018-03-21T23:38:44.632Z,3.60
2018-03-21T23:41:12.144Z,3.60
2018-03-21T23:43:39.673Z,3.60
2018-03-21T23:46:07.329Z,3.60
2018-03-21T23:48:34.976Z,3.60
2018-03-21T23:51:02.563Z,3.60
2018-03-21T23:53:30.210Z,3.70
2018-03-21T23:55:58.608Z,3.60
2018-03-21T23:58:26.168Z,3.60
